sensor_id;sensor_type;location;lat;lon;timestamp;temperature;humidity
18450;DHT22;9354;50.194;7.690;2023-11-19T00:00:47;9.30;99.90
18450;DHT22;9354;50.194;7.690;2023-11-19T00:03:14;9.30;99.90
18450;DHT22;9354;50.194;7.690;2023-11-19T00:05:41;9.30;99.90
18450;DHT22;9354;50.194;7.690;2023-11-19T00:08:10;9.30;99.90
18450;DHT22;9354;50.194;7.690;2023-11-19T00:10:38;9.40;99.90
18450;DHT22;9354;50.194;7.690;2023-11-19T00:13:05;9.40;99.90
18450;DHT22;9354;50.194;7.690;2023-11-19T00:15:33;9.40;99.90
18450;DHT22;9354;50.194;7.690;2023-11-19T00:18:00;9.40;99.90
18450;DHT22;9354;50.194;7.690;2023-11-19T00:20:30;9.40;99.90
18450;DHT22;9354;50.194;7.690;2023-11-19T00:22:58;9.40;99.90
18450;DHT22;9354;50.194;7.690;2023-11-19T00:25:26;9.40;99.90
18450;DHT22;9354;50.194;7.690;2023-11-19T00:27:54;9.50;99.90
18450;DHT22;9354;50.194;7.690;2023-11-19T00:30:22;9.50;99.90
18450;DHT22;9354;50.194;7.690;2023-11-19T00:32:49;9.50;99.90
18450;DHT22;9354;50.194;7.690;2023-11-19T00:35:16;9.50;99.90
18450;DHT22;9354;50.194;7.690;2023-11-19T00:37:43;9.50;99.90
18450;DHT22;9354;50.194;7.690;2023-11-19T00:40:11;9.50;99.90
18450;DHT22;9354;50.194;7.690;2023-11-19T00:42:41;9.50;99.90
18450;DHT22;9354;50.194;7.690;2023-11-19T00:45:09;9.50;99.90
18450;DHT22;9354;50.194;7.690;2023-11-19T00:47:38;9.50;99.90
18450;DHT22;9354;50.194;7.690;2023-11-19T00:50:06;9.50;99.90
18450;DHT22;9354;50.194;7.690;2023-11-19T00:52:35;9.50;99.90
18450;DHT22;9354;50.194;7.690;2023-11-19T00:55:03;9.50;99.90
18450;DHT22;9354;50.194;7.690;2023-11-19T00:57:31;9.60;99.90
18450;DHT22;9354;50.194;7.690;2023-11-19T01:00:00;9.60;99.90
18450;DHT22;9354;50.194;7.690;2023-11-19T01:02:32;9.60;99.90
18450;DHT22;9354;50.194;7.690;2023-11-19T01:05:00;9.60;99.90
18450;DHT22;9354;50.194;7.690;2023-11-19T01:07:28;9.70;99.90
18450;DHT22;9354;50.194;7.690;2023-11-19T01:09:55;9.70;99.90
18450;DHT22;9354;50.194;7.690;2023-11-19T01:12:23;9.70;99.90
18450;DHT22;9354;50.194;7.690;2023-11-19T01:14:50;9.70;99.90
18450;DHT22;9354;50.194;7.690;2023-11-19T01:17:19;9.70;99.90
18450;DHT22;9354;50.194;7.690;2023-11-19T01:19:47;9.80;99.90
18450;DHT22;9354;50.194;7.690;2023-11-19T01:22:16;9.80;99.90
18450;DHT22;9354;50.194;7.690;2023-11-19T01:24:45;9.90;99.90
18450;DHT22;9354;50.194;7.690;2023-11-19T01:27:12;9.90;99.90
18450;DHT22;9354;50.194;7.690;2023-11-19T01:29:39;9.90;99.90
18450;DHT22;9354;50.194;7.690;2023-11-19T01:32:09;10.00;99.90
18450;DHT22;9354;50.194;7.690;2023-11-19T01:34:38;10.00;99.90
18450;DHT22;9354;50.194;7.690;2023-11-19T01:37:06;10.00;99.90
18450;DHT22;9354;50.194;7.690;2023-11-19T01:39:35;10.10;99.90
18450;DHT22;9354;50.194;7.690;2023-11-19T01:42:03;10.10;99.90
18450;DHT22;9354;50.194;7.690;2023-11-19T01:44:30;10.10;99.90
18450;DHT22;9354;50.194;7.690;2023-11-19T01:46:58;10.20;99.90
18450;DHT22;9354;50.194;7.690;2023-11-19T01:49:26;10.20;99.90
18450;DHT22;9354;50.194;7.690;2023-11-19T01:51:57;10.20;99.90
18450;DHT22;9354;50.194;7.690;2023-11-19T01:54:25;10.20;99.90
18450;DHT22;9354;50.194;7.690;2023-11-19T01:56:54;10.20;99.90
18450;DHT22;9354;50.194;7.690;2023-11-19T01:59:24;10.20;99.90
18450;DHT22;9354;50.194;7.690;2023-11-19T02:01:53;10.20;99.90
18450;DHT22;9354;50.194;7.690;2023-11-19T02:04:21;10.20;99.90
18450;DHT22;9354;50.194;7.690;2023-11-19T02:06:51;10.20;99.90
18450;DHT22;9354;50.194;7.690;2023-11-19T02:09:22;10.30;99.90
18450;DHT22;9354;50.194;7.690;2023-11-19T02:11:49;10.30;99.90
18450;DHT22;9354;50.194;7.690;2023-11-19T02:14:17;10.30;99.90
18450;DHT22;9354;50.194;7.690;2023-11-19T02:16:46;10.30;99.90
18450;DHT22;9354;50.194;7.690;2023-11-19T02:19:13;10.30;99.90
18450;DHT22;9354;50.194;7.690;2023-11-19T02:21:40;10.30;99.90
18450;DHT22;9354;50.194;7.690;2023-11-19T02:24:11;10.30;99.90
18450;DHT22;9354;50.194;7.690;2023-11-19T02:26:46;10.40;99.90
18450;DHT22;9354;50.194;7.690;2023-11-19T02:29:16;10.40;99.90
18450;DHT22;9354;50.194;7.690;2023-11-19T02:31:43;10.40;99.90
18450;DHT22;9354;50.194;7.690;2023-11-19T02:34:11;10.40;99.90
18450;DHT22;9354;50.194;7.690;2023-11-19T02:36:39;10.40;99.90
18450;DHT22;9354;50.194;7.690;2023-11-19T02:39:07;10.40;99.90
18450;DHT22;9354;50.194;7.690;2023-11-19T02:41:38;10.40;99.90
18450;DHT22;9354;50.194;7.690;2023-11-19T02:44:06;10.50;99.90
18450;DHT22;9354;50.194;7.690;2023-11-19T02:46:35;10.50;99.90
18450;DHT22;9354;50.194;7.690;2023-11-19T02:49:02;10.50;99.90
18450;DHT22;9354;50.194;7.690;2023-11-19T02:51:30;10.50;99.90
18450;DHT22;9354;50.194;7.690;2023-11-19T02:53:57;10.50;99.90
18450;DHT22;9354;50.194;7.690;2023-11-19T02:56:24;10.50;99.90
18450;DHT22;9354;50.194;7.690;2023-11-19T02:58:52;10.50;99.90
18450;DHT22;9354;50.194;7.690;2023-11-19T03:01:23;10.50;99.90
18450;DHT22;9354;50.194;7.690;2023-11-19T03:03:57;10.50;99.90
18450;DHT22;9354;50.194;7.690;2023-11-19T03:06:24;10.50;99.90
18450;DHT22;9354;50.194;7.690;2023-11-19T03:08:53;10.60;99.90
18450;DHT22;9354;50.194;7.690;2023-11-19T03:11:21;10.60;99.90
18450;DHT22;9354;50.194;7.690;2023-11-19T03:13:48;10.60;99.90
18450;DHT22;9354;50.194;7.690;2023-11-19T03:16:18;10.60;99.90
18450;DHT22;9354;50.194;7.690;2023-11-19T03:18:46;10.60;99.90
18450;DHT22;9354;50.194;7.690;2023-11-19T03:21:15;10.60;99.90
18450;DHT22;9354;50.194;7.690;2023-11-19T03:23:42;10.60;99.90
18450;DHT22;9354;50.194;7.690;2023-11-19T03:26:10;10.60;99.90
18450;DHT22;9354;50.194;7.690;2023-11-19T03:28:38;10.60;99.90
18450;DHT22;9354;50.194;7.690;2023-11-19T03:31:05;10.70;99.90
18450;DHT22;9354;50.194;7.690;2023-11-19T03:33:34;10.70;99.90
18450;DHT22;9354;50.194;7.690;2023-11-19T03:36:01;10.70;99.90
18450;DHT22;9354;50.194;7.690;2023-11-19T03:38:30;10.70;99.90
18450;DHT22;9354;50.194;7.690;2023-11-19T03:40:57;10.70;99.90
18450;DHT22;9354;50.194;7.690;2023-11-19T03:43:25;10.70;99.90
18450;DHT22;9354;50.194;7.690;2023-11-19T03:45:53;10.70;99.90
18450;DHT22;9354;50.194;7.690;2023-11-19T03:48:20;10.70;99.90
18450;DHT22;9354;50.194;7.690;2023-11-19T03:50:48;10.70;99.90
18450;DHT22;9354;50.194;7.690;2023-11-19T03:53:15;10.70;99.90
18450;DHT22;9354;50.194;7.690;2023-11-19T03:55:46;10.70;99.90
18450;DHT22;9354;50.194;7.690;2023-11-19T03:58:13;10.70;99.90
18450;DHT22;9354;50.194;7.690;2023-11-19T04:00:41;10.70;99.90
18450;DHT22;9354;50.194;7.690;2023-11-19T04:03:08;10.70;99.90
18450;DHT22;9354;50.194;7.690;2023-11-19T04:05:36;10.80;99.90
18450;DHT22;9354;50.194;7.690;2023-11-19T04:08:03;10.70;99.90
18450;DHT22;9354;50.194;7.690;2023-11-19T04:10:31;10.80;99.90
18450;DHT22;9354;50.194;7.690;2023-11-19T04:13:00;10.80;99.90
18450;DHT22;9354;50.194;7.690;2023-11-19T04:15:28;10.80;99.90
18450;DHT22;9354;50.194;7.690;2023-11-19T04:17:55;10.90;99.90
18450;DHT22;9354;50.194;7.690;2023-11-19T04:20:22;10.90;99.90
18450;DHT22;9354;50.194;7.690;2023-11-19T04:22:50;10.90;99.90
18450;DHT22;9354;50.194;7.690;2023-11-19T04:25:18;11.00;99.90
18450;DHT22;9354;50.194;7.690;2023-11-19T04:27:45;11.00;99.90
18450;DHT22;9354;50.194;7.690;2023-11-19T04:30:15;11.00;99.90
18450;DHT22;9354;50.194;7.690;2023-11-19T04:32:43;11.00;99.90
18450;DHT22;9354;50.194;7.690;2023-11-19T04:35:10;11.00;99.90
18450;DHT22;9354;50.194;7.690;2023-11-19T04:37:37;11.00;99.90
18450;DHT22;9354;50.194;7.690;2023-11-19T04:40:06;11.00;99.90
18450;DHT22;9354;50.194;7.690;2023-11-19T04:42:33;11.00;99.90
18450;DHT22;9354;50.194;7.690;2023-11-19T04:45:01;11.10;99.90
18450;DHT22;9354;50.194;7.690;2023-11-19T04:47:29;11.10;99.90
18450;DHT22;9354;50.194;7.690;2023-11-19T04:49:57;11.10;99.90
18450;DHT22;9354;50.194;7.690;2023-11-19T04:52:24;11.10;99.90
18450;DHT22;9354;50.194;7.690;2023-11-19T04:54:52;11.10;99.90
18450;DHT22;9354;50.194;7.690;2023-11-19T04:57:19;11.10;99.90
18450;DHT22;9354;50.194;7.690;2023-11-19T04:59:46;11.10;99.90
18450;DHT22;9354;50.194;7.690;2023-11-19T05:02:14;11.10;99.90
18450;DHT22;9354;50.194;7.690;2023-11-19T05:04:44;11.20;99.90
18450;DHT22;9354;50.194;7.690;2023-11-19T05:07:12;11.20;99.90
18450;DHT22;9354;50.194;7.690;2023-11-19T05:09:40;11.20;99.90
18450;DHT22;9354;50.194;7.690;2023-11-19T05:12:09;11.20;99.90
18450;DHT22;9354;50.194;7.690;2023-11-19T05:14:38;11.20;99.90
18450;DHT22;9354;50.194;7.690;2023-11-19T05:17:05;11.20;99.90
18450;DHT22;9354;50.194;7.690;2023-11-19T05:19:33;11.20;99.90
18450;DHT22;9354;50.194;7.690;2023-11-19T05:22:02;11.20;99.90
18450;DHT22;9354;50.194;7.690;2023-11-19T05:24:31;11.20;99.90
18450;DHT22;9354;50.194;7.690;2023-11-19T05:26:59;11.20;99.90
18450;DHT22;9354;50.194;7.690;2023-11-19T05:29:26;11.20;99.90
18450;DHT22;9354;50.194;7.690;2023-11-19T05:31:54;11.10;99.90
18450;DHT22;9354;50.194;7.690;2023-11-19T05:34:21;11.20;99.90
18450;DHT22;9354;50.194;7.690;2023-11-19T05:36:49;11.10;99.90
18450;DHT22;9354;50.194;7.690;2023-11-19T05:39:18;11.10;99.90
18450;DHT22;9354;50.194;7.690;2023-11-19T05:41:46;11.10;99.90
18450;DHT22;9354;50.194;7.690;2023-11-19T05:44:13;11.10;99.90
18450;DHT22;9354;50.194;7.690;2023-11-19T05:46:40;11.10;99.90
18450;DHT22;9354;50.194;7.690;2023-11-19T05:49:09;11.10;99.90
18450;DHT22;9354;50.194;7.690;2023-11-19T05:51:36;11.20;99.90
18450;DHT22;9354;50.194;7.690;2023-11-19T05:54:05;11.10;99.90
18450;DHT22;9354;50.194;7.690;2023-11-19T05:56:34;11.10;99.90
18450;DHT22;9354;50.194;7.690;2023-11-19T05:59:02;11.20;99.90
18450;DHT22;9354;50.194;7.690;2023-11-19T06:01:40;11.10;99.90
18450;DHT22;9354;50.194;7.690;2023-11-19T06:04:08;11.10;99.90
18450;DHT22;9354;50.194;7.690;2023-11-19T06:06:36;11.20;99.90
18450;DHT22;9354;50.194;7.690;2023-11-19T06:09:03;11.10;99.90
18450;DHT22;9354;50.194;7.690;2023-11-19T06:11:34;11.10;99.90
18450;DHT22;9354;50.194;7.690;2023-11-19T06:14:02;11.20;99.90
18450;DHT22;9354;50.194;7.690;2023-11-19T06:16:31;11.20;99.90
18450;DHT22;9354;50.194;7.690;2023-11-19T06:18:59;11.20;99.90
18450;DHT22;9354;50.194;7.690;2023-11-19T06:21:26;11.20;99.90
18450;DHT22;9354;50.194;7.690;2023-11-19T06:23:54;11.20;99.90
18450;DHT22;9354;50.194;7.690;2023-11-19T06:26:21;11.20;99.90
18450;DHT22;9354;50.194;7.690;2023-11-19T06:28:50;11.20;99.90
18450;DHT22;9354;50.194;7.690;2023-11-19T06:31:18;11.20;99.90
18450;DHT22;9354;50.194;7.690;2023-11-19T06:33:46;11.20;99.90
18450;DHT22;9354;50.194;7.690;2023-11-19T06:36:14;11.20;99.90
18450;DHT22;9354;50.194;7.690;2023-11-19T06:38:43;11.20;99.90
18450;DHT22;9354;50.194;7.690;2023-11-19T06:41:10;11.20;99.90
18450;DHT22;9354;50.194;7.690;2023-11-19T06:43:38;11.20;99.90
18450;DHT22;9354;50.194;7.690;2023-11-19T06:46:14;11.20;99.90
18450;DHT22;9354;50.194;7.690;2023-11-19T06:48:42;11.20;99.90
18450;DHT22;9354;50.194;7.690;2023-11-19T06:51:10;11.20;99.90
18450;DHT22;9354;50.194;7.690;2023-11-19T06:53:37;11.20;99.90
18450;DHT22;9354;50.194;7.690;2023-11-19T06:56:06;11.20;99.90
18450;DHT22;9354;50.194;7.690;2023-11-19T06:58:36;11.20;99.90
18450;DHT22;9354;50.194;7.690;2023-11-19T07:01:06;11.20;99.90
18450;DHT22;9354;50.194;7.690;2023-11-19T07:03:36;11.20;99.90
18450;DHT22;9354;50.194;7.690;2023-11-19T07:06:04;11.20;99.90
18450;DHT22;9354;50.194;7.690;2023-11-19T07:08:31;11.20;99.90
18450;DHT22;9354;50.194;7.690;2023-11-19T07:10:59;11.20;99.90
18450;DHT22;9354;50.194;7.690;2023-11-19T07:13:26;11.20;99.90
18450;DHT22;9354;50.194;7.690;2023-11-19T07:15:55;11.20;99.90
18450;DHT22;9354;50.194;7.690;2023-11-19T07:18:23;11.20;99.90
18450;DHT22;9354;50.194;7.690;2023-11-19T07:20:52;11.20;99.90
18450;DHT22;9354;50.194;7.690;2023-11-19T07:23:19;11.20;99.90
18450;DHT22;9354;50.194;7.690;2023-11-19T07:25:47;11.20;99.90
18450;DHT22;9354;50.194;7.690;2023-11-19T07:28:16;11.20;99.90
18450;DHT22;9354;50.194;7.690;2023-11-19T07:30:43;11.20;99.90
18450;DHT22;9354;50.194;7.690;2023-11-19T07:33:11;11.20;99.90
18450;DHT22;9354;50.194;7.690;2023-11-19T07:35:39;11.20;99.90
18450;DHT22;9354;50.194;7.690;2023-11-19T07:38:09;11.30;99.90
18450;DHT22;9354;50.194;7.690;2023-11-19T07:40:37;11.30;99.90
18450;DHT22;9354;50.194;7.690;2023-11-19T07:43:04;11.30;99.90
18450;DHT22;9354;50.194;7.690;2023-11-19T07:45:33;11.30;99.90
18450;DHT22;9354;50.194;7.690;2023-11-19T07:48:00;11.40;99.90
18450;DHT22;9354;50.194;7.690;2023-11-19T07:50:28;11.40;99.90
18450;DHT22;9354;50.194;7.690;2023-11-19T07:52:57;11.40;99.90
18450;DHT22;9354;50.194;7.690;2023-11-19T07:55:26;11.40;99.90
18450;DHT22;9354;50.194;7.690;2023-11-19T07:57:54;11.40;99.90
18450;DHT22;9354;50.194;7.690;2023-11-19T08:00:22;11.40;99.90
18450;DHT22;9354;50.194;7.690;2023-11-19T08:02:49;11.50;99.90
18450;DHT22;9354;50.194;7.690;2023-11-19T08:05:16;11.50;99.90
18450;DHT22;9354;50.194;7.690;2023-11-19T08:07:44;11.50;99.90
18450;DHT22;9354;50.194;7.690;2023-11-19T08:10:11;11.50;99.90
18450;DHT22;9354;50.194;7.690;2023-11-19T08:12:40;11.50;99.90
18450;DHT22;9354;50.194;7.690;2023-11-19T08:15:08;11.50;99.90
18450;DHT22;9354;50.194;7.690;2023-11-19T08:17:36;11.50;99.90
18450;DHT22;9354;50.194;7.690;2023-11-19T08:20:05;11.50;99.90
18450;DHT22;9354;50.194;7.690;2023-11-19T08:22:36;11.50;99.90
18450;DHT22;9354;50.194;7.690;2023-11-19T08:25:04;11.40;99.90
18450;DHT22;9354;50.194;7.690;2023-11-19T08:27:31;11.50;99.90
18450;DHT22;9354;50.194;7.690;2023-11-19T08:30:00;11.40;99.90
18450;DHT22;9354;50.194;7.690;2023-11-19T08:32:28;11.40;99.90
18450;DHT22;9354;50.194;7.690;2023-11-19T08:34:55;11.40;99.90
18450;DHT22;9354;50.194;7.690;2023-11-19T08:37:22;11.50;99.90
18450;DHT22;9354;50.194;7.690;2023-11-19T08:39:50;11.70;99.90
18450;DHT22;9354;50.194;7.690;2023-11-19T08:42:18;11.90;99.90
18450;DHT22;9354;50.194;7.690;2023-11-19T08:44:49;12.10;99.90
18450;DHT22;9354;50.194;7.690;2023-11-19T08:47:21;12.50;99.90
18450;DHT22;9354;50.194;7.690;2023-11-19T08:49:51;12.50;99.90
18450;DHT22;9354;50.194;7.690;2023-11-19T08:52:19;12.70;99.90
18450;DHT22;9354;50.194;7.690;2023-11-19T08:54:47;12.80;99.90
18450;DHT22;9354;50.194;7.690;2023-11-19T08:57:14;12.90;99.90
18450;DHT22;9354;50.194;7.690;2023-11-19T08:59:41;13.00;99.90
18450;DHT22;9354;50.194;7.690;2023-11-19T09:02:09;13.10;99.90
18450;DHT22;9354;50.194;7.690;2023-11-19T09:04:38;13.20;99.90
18450;DHT22;9354;50.194;7.690;2023-11-19T09:07:06;13.30;99.90
18450;DHT22;9354;50.194;7.690;2023-11-19T09:09:35;13.30;99.90
18450;DHT22;9354;50.194;7.690;2023-11-19T09:12:03;13.40;99.90
18450;DHT22;9354;50.194;7.690;2023-11-19T09:14:31;13.40;99.90
18450;DHT22;9354;50.194;7.690;2023-11-19T09:16:59;13.50;99.90
18450;DHT22;9354;50.194;7.690;2023-11-19T09:19:27;13.40;99.90
18450;DHT22;9354;50.194;7.690;2023-11-19T09:21:55;13.40;99.90
18450;DHT22;9354;50.194;7.690;2023-11-19T09:24:23;13.40;99.90
18450;DHT22;9354;50.194;7.690;2023-11-19T09:26:50;13.40;99.90
18450;DHT22;9354;50.194;7.690;2023-11-19T09:29:18;13.40;99.90
18450;DHT22;9354;50.194;7.690;2023-11-19T09:31:45;13.40;99.90
18450;DHT22;9354;50.194;7.690;2023-11-19T09:34:13;13.30;99.90
18450;DHT22;9354;50.194;7.690;2023-11-19T09:36:40;13.30;99.90
18450;DHT22;9354;50.194;7.690;2023-11-19T09:39:11;13.30;99.90
18450;DHT22;9354;50.194;7.690;2023-11-19T09:41:38;13.30;99.90
18450;DHT22;9354;50.194;7.690;2023-11-19T09:44:07;13.20;99.90
18450;DHT22;9354;50.194;7.690;2023-11-19T09:46:35;13.20;99.90
18450;DHT22;9354;50.194;7.690;2023-11-19T09:49:03;13.10;99.90
18450;DHT22;9354;50.194;7.690;2023-11-19T09:51:33;13.10;99.90
18450;DHT22;9354;50.194;7.690;2023-11-19T09:54:01;13.10;99.90
18450;DHT22;9354;50.194;7.690;2023-11-19T09:56:30;13.10;99.90
18450;DHT22;9354;50.194;7.690;2023-11-19T09:58:59;13.10;99.90
18450;DHT22;9354;50.194;7.690;2023-11-19T10:01:26;13.00;99.90
18450;DHT22;9354;50.194;7.690;2023-11-19T10:03:55;13.00;99.90
18450;DHT22;9354;50.194;7.690;2023-11-19T10:06:24;13.00;99.90
18450;DHT22;9354;50.194;7.690;2023-11-19T10:08:53;13.00;99.90
18450;DHT22;9354;50.194;7.690;2023-11-19T10:11:21;13.00;99.90
18450;DHT22;9354;50.194;7.690;2023-11-19T10:13:51;13.00;99.90
18450;DHT22;9354;50.194;7.690;2023-11-19T10:16:18;13.00;99.90
18450;DHT22;9354;50.194;7.690;2023-11-19T10:18:47;13.00;99.90
18450;DHT22;9354;50.194;7.690;2023-11-19T10:21:17;13.00;99.90
18450;DHT22;9354;50.194;7.690;2023-11-19T10:23:52;13.00;99.90
18450;DHT22;9354;50.194;7.690;2023-11-19T10:26:20;13.00;99.90
18450;DHT22;9354;50.194;7.690;2023-11-19T10:28:50;13.10;99.90
18450;DHT22;9354;50.194;7.690;2023-11-19T10:31:21;13.10;99.90
18450;DHT22;9354;50.194;7.690;2023-11-19T10:33:51;13.20;99.90
18450;DHT22;9354;50.194;7.690;2023-11-19T10:36:19;13.20;99.90
18450;DHT22;9354;50.194;7.690;2023-11-19T10:38:52;13.40;99.90
18450;DHT22;9354;50.194;7.690;2023-11-19T10:41:27;13.40;99.90
18450;DHT22;9354;50.194;7.690;2023-11-19T10:43:57;13.40;99.90
18450;DHT22;9354;50.194;7.690;2023-11-19T10:46:38;13.40;99.90
18450;DHT22;9354;50.194;7.690;2023-11-19T10:49:07;13.40;99.90
18450;DHT22;9354;50.194;7.690;2023-11-19T10:51:35;13.40;99.90
18450;DHT22;9354;50.194;7.690;2023-11-19T10:54:03;13.40;99.90
18450;DHT22;9354;50.194;7.690;2023-11-19T10:56:32;13.40;99.90
18450;DHT22;9354;50.194;7.690;2023-11-19T10:59:01;13.50;99.90
18450;DHT22;9354;50.194;7.690;2023-11-19T11:01:35;13.50;99.90
18450;DHT22;9354;50.194;7.690;2023-11-19T11:04:13;13.50;99.90
18450;DHT22;9354;50.194;7.690;2023-11-19T11:06:41;13.60;99.90
18450;DHT22;9354;50.194;7.690;2023-11-19T11:09:09;13.60;99.90
18450;DHT22;9354;50.194;7.690;2023-11-19T11:11:40;13.60;99.90
18450;DHT22;9354;50.194;7.690;2023-11-19T11:14:12;13.70;99.90
18450;DHT22;9354;50.194;7.690;2023-11-19T11:16:43;13.80;99.90
18450;DHT22;9354;50.194;7.690;2023-11-19T11:19:11;13.80;99.90
18450;DHT22;9354;50.194;7.690;2023-11-19T11:21:41;13.80;99.90
18450;DHT22;9354;50.194;7.690;2023-11-19T11:27:43;13.80;99.90
18450;DHT22;9354;50.194;7.690;2023-11-19T11:30:24;13.90;99.90
18450;DHT22;9354;50.194;7.690;2023-11-19T11:33:06;14.00;99.90
18450;DHT22;9354;50.194;7.690;2023-11-19T11:35:42;14.10;99.90
18450;DHT22;9354;50.194;7.690;2023-11-19T11:38:14;14.20;99.90
18450;DHT22;9354;50.194;7.690;2023-11-19T11:40:43;14.30;99.90
18450;DHT22;9354;50.194;7.690;2023-11-19T11:43:43;14.40;99.90
18450;DHT22;9354;50.194;7.690;2023-11-19T11:46:55;14.50;99.90
18450;DHT22;9354;50.194;7.690;2023-11-19T11:49:26;14.80;99.90
18450;DHT22;9354;50.194;7.690;2023-11-19T11:52:02;15.00;99.90
18450;DHT22;9354;50.194;7.690;2023-11-19T11:54:33;15.10;99.90
18450;DHT22;9354;50.194;7.690;2023-11-19T11:57:08;15.20;99.90
18450;DHT22;9354;50.194;7.690;2023-11-19T11:59:47;15.30;99.90
18450;DHT22;9354;50.194;7.690;2023-11-19T12:02:18;15.40;99.90
18450;DHT22;9354;50.194;7.690;2023-11-19T12:04:48;15.50;99.90
18450;DHT22;9354;50.194;7.690;2023-11-19T12:07:17;15.60;99.90
18450;DHT22;9354;50.194;7.690;2023-11-19T12:09:48;15.80;99.90
18450;DHT22;9354;50.194;7.690;2023-11-19T12:12:21;16.00;99.90
18450;DHT22;9354;50.194;7.690;2023-11-19T12:15:06;16.00;99.90
18450;DHT22;9354;50.194;7.690;2023-11-19T12:17:48;16.10;99.90
18450;DHT22;9354;50.194;7.690;2023-11-19T12:20:17;16.20;99.90
18450;DHT22;9354;50.194;7.690;2023-11-19T12:22:45;16.20;99.90
18450;DHT22;9354;50.194;7.690;2023-11-19T12:25:16;16.30;99.90
18450;DHT22;9354;50.194;7.690;2023-11-19T12:27:46;16.20;99.90
18450;DHT22;9354;50.194;7.690;2023-11-19T12:30:17;16.00;99.90
18450;DHT22;9354;50.194;7.690;2023-11-19T12:32:46;15.90;99.90
18450;DHT22;9354;50.194;7.690;2023-11-19T12:35:13;15.70;99.90
18450;DHT22;9354;50.194;7.690;2023-11-19T12:37:41;15.50;99.90
18450;DHT22;9354;50.194;7.690;2023-11-19T12:40:14;15.30;99.90
18450;DHT22;9354;50.194;7.690;2023-11-19T12:42:42;15.30;99.90
18450;DHT22;9354;50.194;7.690;2023-11-19T12:45:09;15.20;99.90
18450;DHT22;9354;50.194;7.690;2023-11-19T12:47:38;15.20;99.90
18450;DHT22;9354;50.194;7.690;2023-11-19T12:50:09;15.30;99.90
18450;DHT22;9354;50.194;7.690;2023-11-19T12:52:37;15.40;99.90
18450;DHT22;9354;50.194;7.690;2023-11-19T12:55:06;15.60;99.90
18450;DHT22;9354;50.194;7.690;2023-11-19T12:57:51;15.70;99.90
18450;DHT22;9354;50.194;7.690;2023-11-19T13:00:19;15.80;99.90
18450;DHT22;9354;50.194;7.690;2023-11-19T13:02:49;15.80;99.90
18450;DHT22;9354;50.194;7.690;2023-11-19T13:05:28;15.80;99.90
18450;DHT22;9354;50.194;7.690;2023-11-19T13:08:00;15.80;99.90
18450;DHT22;9354;50.194;7.690;2023-11-19T13:10:29;15.60;99.90
18450;DHT22;9354;50.194;7.690;2023-11-19T13:13:04;15.50;99.90
18450;DHT22;9354;50.194;7.690;2023-11-19T13:15:32;15.50;99.90
18450;DHT22;9354;50.194;7.690;2023-11-19T13:18:00;15.40;99.90
18450;DHT22;9354;50.194;7.690;2023-11-19T13:20:29;15.40;99.90
18450;DHT22;9354;50.194;7.690;2023-11-19T13:22:58;15.20;99.90
18450;DHT22;9354;50.194;7.690;2023-11-19T13:25:26;15.20;99.90
18450;DHT22;9354;50.194;7.690;2023-11-19T13:27:53;15.20;99.90
18450;DHT22;9354;50.194;7.690;2023-11-19T13:30:21;15.10;99.90
18450;DHT22;9354;50.194;7.690;2023-11-19T13:32:50;15.00;99.90
18450;DHT22;9354;50.194;7.690;2023-11-19T13:35:17;14.80;99.90
18450;DHT22;9354;50.194;7.690;2023-11-19T13:37:46;14.60;99.90
18450;DHT22;9354;50.194;7.690;2023-11-19T13:40:14;14.50;99.90
18450;DHT22;9354;50.194;7.690;2023-11-19T13:42:41;14.30;99.90
18450;DHT22;9354;50.194;7.690;2023-11-19T13:45:09;14.20;99.90
18450;DHT22;9354;50.194;7.690;2023-11-19T13:47:39;14.10;99.90
18450;DHT22;9354;50.194;7.690;2023-11-19T13:50:09;14.00;99.90
18450;DHT22;9354;50.194;7.690;2023-11-19T13:52:36;13.90;99.90
18450;DHT22;9354;50.194;7.690;2023-11-19T13:55:08;13.90;99.90
18450;DHT22;9354;50.194;7.690;2023-11-19T13:57:37;13.80;99.90
18450;DHT22;9354;50.194;7.690;2023-11-19T14:00:06;13.80;99.90
18450;DHT22;9354;50.194;7.690;2023-11-19T14:02:37;13.70;99.90
18450;DHT22;9354;50.194;7.690;2023-11-19T14:05:04;13.60;99.90
18450;DHT22;9354;50.194;7.690;2023-11-19T14:07:32;13.50;99.90
18450;DHT22;9354;50.194;7.690;2023-11-19T14:09:59;13.40;99.90
18450;DHT22;9354;50.194;7.690;2023-11-19T14:12:28;13.40;99.90
18450;DHT22;9354;50.194;7.690;2023-11-19T14:14:55;13.40;99.90
18450;DHT22;9354;50.194;7.690;2023-11-19T14:17:23;13.30;99.90
18450;DHT22;9354;50.194;7.690;2023-11-19T14:19:51;13.30;99.90
18450;DHT22;9354;50.194;7.690;2023-11-19T14:22:18;13.30;99.90
18450;DHT22;9354;50.194;7.690;2023-11-19T14:24:46;13.20;99.90
18450;DHT22;9354;50.194;7.690;2023-11-19T14:27:13;13.20;99.90
18450;DHT22;9354;50.194;7.690;2023-11-19T14:29:44;13.20;99.90
18450;DHT22;9354;50.194;7.690;2023-11-19T14:32:11;13.20;99.90
18450;DHT22;9354;50.194;7.690;2023-11-19T14:34:39;13.20;99.90
18450;DHT22;9354;50.194;7.690;2023-11-19T14:37:06;13.10;99.90
18450;DHT22;9354;50.194;7.690;2023-11-19T14:39:36;13.10;99.90
18450;DHT22;9354;50.194;7.690;2023-11-19T14:42:04;13.10;99.90
18450;DHT22;9354;50.194;7.690;2023-11-19T14:44:32;13.00;99.90
18450;DHT22;9354;50.194;7.690;2023-11-19T14:47:01;13.00;99.90
18450;DHT22;9354;50.194;7.690;2023-11-19T14:49:29;12.90;99.90
18450;DHT22;9354;50.194;7.690;2023-11-19T14:51:56;12.90;99.90
18450;DHT22;9354;50.194;7.690;2023-11-19T14:54:23;12.90;99.90
18450;DHT22;9354;50.194;7.690;2023-11-19T14:56:52;12.80;99.90
18450;DHT22;9354;50.194;7.690;2023-11-19T14:59:19;12.80;99.90
18450;DHT22;9354;50.194;7.690;2023-11-19T15:01:46;12.70;99.90
18450;DHT22;9354;50.194;7.690;2023-11-19T15:04:15;12.70;99.90
18450;DHT22;9354;50.194;7.690;2023-11-19T15:06:43;12.70;99.90
18450;DHT22;9354;50.194;7.690;2023-11-19T15:09:11;12.60;99.90
18450;DHT22;9354;50.194;7.690;2023-11-19T15:11:42;12.60;99.90
18450;DHT22;9354;50.194;7.690;2023-11-19T15:14:10;12.60;99.90
18450;DHT22;9354;50.194;7.690;2023-11-19T15:16:37;12.50;99.90
18450;DHT22;9354;50.194;7.690;2023-11-19T15:19:04;12.50;99.90
18450;DHT22;9354;50.194;7.690;2023-11-19T15:21:34;12.50;99.90
18450;DHT22;9354;50.194;7.690;2023-11-19T15:24:02;12.40;99.90
18450;DHT22;9354;50.194;7.690;2023-11-19T15:26:30;12.40;99.90
18450;DHT22;9354;50.194;7.690;2023-11-19T15:28:58;12.50;99.90
18450;DHT22;9354;50.194;7.690;2023-11-19T15:31:25;12.40;99.90
18450;DHT22;9354;50.194;7.690;2023-11-19T15:33:53;12.30;99.90
18450;DHT22;9354;50.194;7.690;2023-11-19T15:36:20;12.30;99.90
18450;DHT22;9354;50.194;7.690;2023-11-19T15:38:49;12.30;99.90
18450;DHT22;9354;50.194;7.690;2023-11-19T15:41:16;12.20;99.90
18450;DHT22;9354;50.194;7.690;2023-11-19T15:43:44;12.20;99.90
18450;DHT22;9354;50.194;7.690;2023-11-19T15:46:11;12.10;99.90
18450;DHT22;9354;50.194;7.690;2023-11-19T15:48:39;12.10;99.90
18450;DHT22;9354;50.194;7.690;2023-11-19T15:51:07;12.10;99.90
18450;DHT22;9354;50.194;7.690;2023-11-19T15:53:34;12.10;99.90
18450;DHT22;9354;50.194;7.690;2023-11-19T15:56:03;12.10;99.90
18450;DHT22;9354;50.194;7.690;2023-11-19T15:58:31;12.10;99.90
18450;DHT22;9354;50.194;7.690;2023-11-19T16:00:58;12.10;99.90